Home > Products > Valid Products > TAF

000
FTUS45 KSLC 311819 AAA
TAFCDC
TAF AMD
KCDC 311819Z 3118/0118 18018G27KT P6SM SCT120 BKN200
     FM010200 17010KT P6SM SCT120 BKN200
     FM011200 19015G25KT P6SM VCSH SCT060 BKN100=



000
FTUS45 KSLC 311819 AAB
TAFSLC
TAF AMD
KSLC 311819Z 3118/0124 16016G26KT P6SM SCT120 BKN200
     FM010100 17013KT P6SM SCT120 BKN200
     FM011600 19020G30KT P6SM SCT080 BKN150
     FM011900 19025G37KT P6SM -SHRA SCT040 BKN080=



000
FTUS45 KSLC 311720
TAFENV
TAF
KENV 311720Z 3118/0118 12007KT P6SM SCT080 BKN200
     FM011500 14012G20KT P6SM VCSH SCT040 BKN080
      AMD LTD TO CLD VIS AND WIND=



000
FTUS45 KSLC 311720
TAFSGU
TAF
KSGU 311720Z 3118/0118 VRB04KT P6SM SCT200
     FM312000 24008KT P6SM SCT150 BKN200
     FM010200 12008KT P6SM SCT150 BKN200
     FM011500 15015G25KT P6SM VCSH SCT060 BKN100
      AMD LTD TO CLD VIS AND WIND=



000
FTUS45 KSLC 311720
TAFPVU
TAF
KPVU 311720Z 3118/0118 17007KT P6SM SCT120 BKN180
      AMD LTD TO CLD VIS AND WIND=



000
FTUS45 KSLC 311720
TAFBCE
TAF
KBCE 311720Z 3118/0118 14012G20KT P6SM SCT120 BKN200
     FM010200 16010KT P6SM SCT120 BKN200
     FM011500 15018G28KT P6SM VCSH SCT040 BKN080=



000
FTUS45 KSLC 311720
TAFCDC
TAF
KCDC 311720Z 3118/0118 20010G15KT P6SM BKN200
     FM311900 22018G27KT P6SM SCT120 BKN200
     FM010200 17010KT P6SM SCT120 BKN200
     FM011200 19015G25KT P6SM VCSH SCT060 BKN100=



000
FTUS45 KSLC 311720
TAFOGD
TAF
KOGD 311720Z 3118/0118 18012G18KT P6SM SCT120 BKN200=



000
FTUS45 KSLC 311720
TAFSLC
TAF
KSLC 311720Z 3118/0124 18016G26KT P6SM SCT120 BKN200
     FM010100 17013KT P6SM SCT120 BKN200
     FM011600 19020G30KT P6SM SCT080 BKN150
     FM011900 19025G37KT P6SM -SHRA SCT040 BKN080=



000
FTUS45 KSLC 311720
TAFLGU
TAF
KLGU 311720Z 3118/0118 VRB05KT P6SM SCT120 BKN200
     FM011400 15007KT P6SM SCT120 BKN200=



000
FTUS45 KSLC 311459 AAB
TAFSLC
TAF AMD
KSLC 311459Z 3115/0118 15012G18KT P6SM BKN200
     FM311700 18016G26KT P6SM SCT120 BKN200
     FM010100 17013KT P6SM SCT120 BKN200
     FM010400 18014G27KT P6SM SCT120 BKN200
     FM011600 19020G30KT P6SM SCT080 BKN150=



000
FTUS45 KSLC 311207 CCA
TAFSLC
TAF COR
KSLC 311207Z 3112/0118 15014G23KT P6SM SCT200
     FM311900 18016G26KT P6SM SCT120 BKN200
     FM010100 17013KT P6SM SCT120 BKN200
     FM010400 18014G27KT P6SM SCT120 BKN200
     FM011600 19020G30KT P6SM SCT080 BKN150=



000
FTUS45 KSLC 311206 AAA
TAFSLC
TAF AMD
KSLC 311206Z 3112/0118 17014G23KT P6SM SCT200
     FM311900 18016G26KT P6SM SCT120 BKN200
     FM010100 17013KT P6SM SCT120 BKN200
     FM010400 18014G27KT P6SM SCT120 BKN200
     FM011600 19020G30KT P6SM SCT080 BKN150=



000
FTUS45 KSLC 311120
TAFLGU
TAF
KLGU 311120Z 3112/0112 VRB05KT P6SM SCT200
     FM010200 15007KT P6SM SCT120 BKN200=



000
FTUS45 KSLC 311120
TAFSLC
TAF
KSLC 311120Z 3112/0118 15011KT P6SM SCT200
     FM311700 18014G21KT P6SM SCT200
     FM312100 18016G26KT P6SM SCT120 BKN200
     FM010100 17013KT P6SM SCT120 BKN200
     FM011600 19020G30KT P6SM SCT080 BKN150=



000
FTUS45 KSLC 311120
TAFSGU
TAF
KSGU 311120Z 3112/0112 VRB04KT P6SM SCT200
     FM312000 24008KT P6SM SCT150 BKN200
     FM010200 12008KT P6SM SCT150 BKN200
      AMD LTD TO CLD VIS AND WIND=



000
FTUS45 KSLC 311120
TAFENV
TAF
KENV 311120Z 3112/0112 VRB04KT P6SM SCT200
     FM311700 12007KT P6SM SCT120 SCT200
     FM010200 VRB05KT P6SM SCT120 BKN200
      AMD LTD TO CLD VIS AND WIND=



000
FTUS45 KSLC 311120
TAFOGD
TAF
KOGD 311120Z 3112/0112 17008KT P6SM SCT200
     FM311900 18012G18KT P6SM SCT120 SCT200
     FM010400 18014KT P6SM SCT120 BKN200=



000
FTUS45 KSLC 311120
TAFPVU
TAF
KPVU 311120Z 3112/0112 VRB05KT P6SM SCT140
     FM311800 21008KT P6SM SCT120 SCT200
     FM010300 15009KT P6SM SCT120 BKN200
      AMD LTD TO CLD VIS AND WIND=



000
FTUS45 KSLC 311120
TAFCDC
TAF
KCDC 311120Z 3112/0112 15006KT P6SM SCT200
     FM311500 19010G15KT P6SM BKN200
     FM311700 22018G27KT P6SM SCT120 BKN200
     FM010200 17012KT P6SM SCT120 BKN200=



000
FTUS45 KSLC 311120
TAFBCE
TAF
KBCE 311120Z 3112/0112 25007KT P6SM SCT200
     FM311600 14010G18KT P6SM SCT120 BKN200
     FM010200 16010KT P6SM SCT120 BKN200=



000
FTUS45 KSLC 310900 AAA
TAFSLC
TAF AMD
KSLC 310900Z 3109/0112 15011KT P6SM SCT200
     FM311700 18014G21KT P6SM SCT200
     FM312100 18016G26KT P6SM SCT120 BKN200
     FM010100 19013KT P6SM SCT120 BKN200=



000
FTUS45 KSLC 310520
TAFPVU
TAF
KPVU 310520Z 3106/0106 VRB05KT P6SM SCT140
     FM311800 21008KT P6SM SCT120 SCT200
     FM010300 15009KT P6SM SCT120 BKN200
      AMD LTD TO CLD VIS AND WIND=



000
FTUS45 KSLC 310520
TAFOGD
TAF
KOGD 310520Z 3106/0106 17008KT P6SM SCT200
     FM311900 18012KT P6SM SCT120=



000
FTUS45 KSLC 310520
TAFSGU
TAF
KSGU 310520Z 3106/0106 VRB04KT P6SM SCT200
     FM312000 24008KT P6SM SCT150 BKN200
     FM010200 VRB05KT P6SM SCT150 BKN200
      AMD LTD TO CLD VIS AND WIND=



000
FTUS45 KSLC 310520
TAFLGU
TAF
KLGU 310520Z 3106/0106 VRB05KT P6SM SCT200
     FM010200 15007KT P6SM SCT120 BKN200=



000
FTUS45 KSLC 310520
TAFENV
TAF
KENV 310520Z 3106/0106 VRB04KT P6SM SCT200
     FM311700 12007KT P6SM SCT120 SCT200
     FM010200 VRB05KT P6SM SCT120 BKN200
      AMD LTD TO CLD VIS AND WIND=



000
FTUS45 KSLC 310520
TAFBCE
TAF
KBCE 310520Z 3106/0106 22007KT P6SM SCT200
     FM311600 14010G18KT P6SM SCT120 BKN200
     FM010200 16010KT P6SM SCT120 BKN200=



000
FTUS45 KSLC 310520
TAFSLC
TAF
KSLC 310520Z 3106/0112 15009KT P6SM BKN200
     FM311700 18014G21KT P6SM SCT200
     FM312100 18016G26KT P6SM SCT120 BKN200
     FM010100 19013KT P6SM SCT120 BKN200=



000
FTUS45 KSLC 310520
TAFCDC
TAF
KCDC 310520Z 3106/0106 15006KT P6SM SCT200
     FM311500 19010G15KT P6SM BKN200
     FM311700 22018G27KT P6SM SCT120 BKN200
     FM010200 17010KT P6SM SCT120 BKN200=



000
FTUS45 KSLC 310253 AAA
TAFSLC
TAF AMD
KSLC 310253Z 3103/0106 15009KT P6SM BKN200
     FM311700 18014G21KT P6SM SCT200
     FM312100 18016G26KT P6SM SCT120 BKN200
     FM010100 19011KT P6SM SCT120 BKN200=



000
FTUS45 KSLC 302334
TAFPVU
TAF
KPVU 302334Z 3100/3124 VRB05KT P6SM SCT140
     FM310600 14008KT P6SM SCT120
      AMD LTD TO CLD VIS AND WIND=



000
FTUS45 KSLC 302334
TAFOGD
TAF
KOGD 302334Z 3100/3124 29006KT P6SM SKC
     FM310200 17008KT P6SM SCT200
     FM311900 18012KT P6SM SCT120=



000
FTUS45 KSLC 302334
TAFLGU
TAF
KLGU 302334Z 3100/3124 VRB05KT P6SM SCT200=



000
FTUS45 KSLC 302334
TAFSLC
TAF
KSLC 302334Z 3100/0106 32007KT P6SM FEW200
     FM310300 15009KT P6SM SCT200
     FM311800 18014G21KT P6SM SCT200
     FM312100 18016G26KT P6SM SCT120 SCT200
     FM010100 19011KT P6SM SCT120 SCT200=



000
FTUS45 KSLC 302334
TAFENV
TAF
KENV 302334Z 3100/3124 VRB04KT P6SM SCT200
     FM311700 12007KT P6SM SCT100 SCT200
      AMD LTD TO CLD VIS AND WIND=



000
FTUS45 KSLC 302334
TAFCDC
TAF
KCDC 302334Z 3100/3124 22009KT P6SM SKC
     FM310300 18007KT P6SM SCT200
     FM311300 19010G15KT P6SM BKN200
     FM311700 22015G25KT P6SM SCT120 BKN200=



000
FTUS45 KSLC 302334
TAFBCE
TAF
KBCE 302334Z 3100/3124 17010KT P6SM SCT200
     FM310300 22007KT P6SM SCT200
     FM311600 14010G18KT P6SM SCT120 BKN200=



000
FTUS45 KSLC 302334
TAFSGU
TAF
KSGU 302334Z 3100/3124 VRB04KT P6SM SCT200
     FM312000 24008KT P6SM SCT120 BKN200
      AMD LTD TO CLD VIS AND WIND=



000
FTUS45 KSLC 302142 AAA
TAFCDC
TAF AMD
KCDC 302142Z 3022/3118 22011G18KT P6SM SCT200
     FM310000 21010KT P6SM BKN200
     FM310200 17007KT P6SM BKN200
     FM311200 19010G15KT P6SM SCT120 BKN200=



000
FTUS45 KSLC 302142 AAA
TAFBCE
TAF AMD
KBCE 302142Z 3022/3118 18012G18KT P6SM FEW200
     FM310000 18010KT P6SM SCT200
     FM310300 22007KT P6SM SCT120 BKN200=



000
FTUS45 KSLC 302050 AAA
TAFSLC
TAF AMD
KSLC 302050Z 3021/3124 32007KT P6SM FEW200
     FM310300 15009KT P6SM SCT200
     FM311800 18014G21KT P6SM SCT120 SCT200=



000
FTUS45 KSLC 301738
TAFSGU
TAF
KSGU 301738Z 3018/3118 VRB04KT P6SM SKC
     FM302200 23008KT P6SM SKC
     FM310300 VRB04KT P6SM SCT200
      AMD LTD TO CLD VIS AND WIND=



000
FTUS45 KSLC 301738
TAFENV
TAF
KENV 301738Z 3018/3118 11006KT P6SM SCT200
     FM310200 VRB04KT P6SM SCT120 BKN200
     FM311700 12007KT P6SM SCT100 BKN200
      AMD LTD TO CLD VIS AND WIND=



000
FTUS45 KSLC 301738
TAFOGD
TAF
KOGD 301738Z 3018/3118 VRB05KT P6SM SKC
     FM302000 29006KT P6SM SKC
     FM310200 17008KT P6SM SCT200=



000
FTUS45 KSLC 301738
TAFBCE
TAF
KBCE 301738Z 3018/3118 16010KT P6SM SKC
     FM310300 22007KT P6SM SCT120 BKN200=



000
FTUS45 KSLC 301738
TAFSGU
TAF
KSGU 301738Z 3018/3118 VRB04KT P6SM SKC
     FM302200 23008KT P6SM SKC
     FM310300 VRB04KT P6SM SCT200
      AMD LTD TO CLD VIS AND WIND=



000
FTUS45 KSLC 301738
TAFPVU
TAF
KPVU 301738Z 3018/3118 VRB05KT P6SM SKC
      AMD LTD TO CLD VIS AND WIND=



000
FTUS45 KSLC 301738
TAFSLC
TAF
KSLC 301738Z 3018/3124 12005KT P6SM SKC
     FM301900 32007KT P6SM SKC
     FM310300 15009KT P6SM SCT200=



000
FTUS45 KSLC 301738
TAFENV
TAF
KENV 301738Z 3018/3118 11006KT P6SM SCT200
     FM310200 VRB04KT P6SM SCT120 BKN200
     FM311700 12007KT P6SM SCT100 BKN200
      AMD LTD TO CLD VIS AND WIND=



000
FTUS45 KSLC 301738
TAFLGU
TAF
KLGU 301738Z 3018/3118 VRB05KT P6SM SCT200=



000
FTUS45 KSLC 301738
TAFCDC
TAF
KCDC 301738Z 3018/3118 VRB04KT P6SM SKC
     FM301900 20009KT P6SM SKC
     FM310200 17007KT P6SM SCT200
     FM311000 19010KT P6SM SCT120 BKN200=



000
FTUS45 KSLC 301738
TAFSLC
TAF
KSLC 301738Z 3018/3124 12005KT P6SM SKC
     FM301900 32007KT P6SM SKC
     FM310300 15009KT P6SM SCT200=



000
FTUS45 KSLC 301738
TAFPVU
TAF
KPVU 301738Z 3018/3118 VRB05KT P6SM SKC
      AMD LTD TO CLD VIS AND WIND=



000
FTUS45 KSLC 301738
TAFLGU
TAF
KLGU 301738Z 3018/3118 VRB05KT P6SM SCT200=



000
FTUS45 KSLC 301738
TAFBCE
TAF
KBCE 301738Z 3018/3118 16010KT P6SM SKC
     FM310300 22007KT P6SM SCT120 BKN200=



000
FTUS45 KSLC 301738
TAFCDC
TAF
KCDC 301738Z 3018/3118 VRB04KT P6SM SKC
     FM301900 20009KT P6SM SKC
     FM310200 17007KT P6SM SCT200
     FM311000 19010KT P6SM SCT120 BKN200=



000
FTUS45 KSLC 301738
TAFOGD
TAF
KOGD 301738Z 3018/3118 VRB05KT P6SM SKC
     FM302000 29006KT P6SM SKC
     FM310200 17008KT P6SM SCT200=



000
FTUS45 KSLC 301458 AAA
TAFSLC
TAF AMD
KSLC 301458Z 3015/3118 14007KT P6SM SKC
     FM302000 32007KT P6SM SKC
     FM310300 15009KT P6SM SCT200=



000
FTUS45 KSLC 301120
TAFSLC
TAF
KSLC 301120Z 3012/3118 14005KT P6SM SKC
     FM301500 16008KT P6SM SCT150
     FM302000 32006KT P6SM SCT150
     FM310300 16009KT P6SM SKC=



000
FTUS45 KSLC 301120
TAFPVU
TAF
KPVU 301120Z 3012/3112 VRB03KT P6SM SKC
     FM301700 16005KT P6SM SCT150
     FM310300 VRB03KT P6SM SKC
      AMD LTD TO CLD VIS AND WIND=



000
FTUS45 KSLC 301120
TAFLGU
TAF
KLGU 301120Z 3012/3112 VRB03KT P6SM SKC
     FM301500 16005KT P6SM SCT150
     FM310300 14004KT P6SM SCT130=



000
FTUS45 KSLC 301120
TAFBCE
TAF
KBCE 301120Z 3012/3112 25007KT P6SM SCT100
     FM301600 15008KT P6SM SCT100
     FM301900 24009KT P6SM SCT100
     FM310400 16009KT P6SM SKC=



000
FTUS45 KSLC 301120
TAFOGD
TAF
KOGD 301120Z 3012/3112 18007KT P6SM FEW150
     FM301900 28005KT P6SM SCT150
     FM310400 18007KT P6SM SKC=



000
FTUS45 KSLC 301120
TAFCDC
TAF
KCDC 301120Z 3012/3112 16004KT P6SM SKC
     FM301700 22010KT P6SM SKC
     FM310400 16007KT P6SM SKC=



000
FTUS45 KSLC 301120
TAFENV
TAF
KENV 301120Z 3012/3112 VRB03KT P6SM SKC
     FM301500 11005KT P6SM SCT150
     FM310500 25005KT P6SM SKC
      AMD LTD TO CLD VIS AND WIND=



000
FTUS45 KSLC 301120
TAFSGU
TAF
KSGU 301120Z 3012/3112 VRB03KT P6SM SKC
     FM302200 23008KT P6SM SKC
     FM310300 VRB03KT P6SM SKC
      AMD LTD TO CLD VIS AND WIND=



000
FTUS45 KSLC 300908 AAA
TAFSLC
TAF AMD
KSLC 300908Z 3009/3112 16004KT P6SM SKC
     FM301700 16008KT P6SM SKC
     FM302000 32006KT P6SM SKC
     FM310300 16008KT P6SM SKC=



000
FTUS45 KSLC 300532
TAFENV
TAF
KENV 300532Z 3006/3106 11005KT P6SM SKC
      AMD LTD TO CLD VIS AND WIND=



000
FTUS45 KSLC 300532
TAFOGD
TAF
KOGD 300532Z 3006/3106 18006KT P6SM SKC
     FM302000 30005KT P6SM SKC
     FM310400 18007KT P6SM SKC=



000
FTUS45 KSLC 300532
TAFSLC
TAF
KSLC 300532Z 3006/3112 14006KT P6SM SKC
     FM301500 16008KT P6SM SKC
     FM302000 32006KT P6SM SKC
     FM310300 16008KT P6SM SKC=



000
FTUS45 KSLC 300532
TAFPVU
TAF
KPVU 300532Z 3006/3106 VRB03KT P6SM SCT130
     FM300800 13005KT P6SM SKC
     FM301700 16005KT P6SM SKC
     FM310300 VRB03KT P6SM SKC
      AMD LTD TO CLD VIS AND WIND=



000
FTUS45 KSLC 300532
TAFLGU
TAF
KLGU 300532Z 3006/3106 VRB03KT P6SM FEW150
     FM302000 35005KT P6SM SCT150
     FM310300 14004KT P6SM SCT130=



000
FTUS45 KSLC 300532
TAFBCE
TAF
KBCE 300532Z 3006/3106 25005KT P6SM SKC
     FM301600 15008KT P6SM SKC
     FM301900 24009KT P6SM SKC
     FM310400 16007KT P6SM SKC=



000
FTUS45 KSLC 300532
TAFSGU
TAF
KSGU 300532Z 3006/3106 VRB03KT P6SM SKC
     FM302200 23007KT P6SM SKC
     FM310300 VRB03KT P6SM SKC
      AMD LTD TO CLD VIS AND WIND=



000
FTUS45 KSLC 300532
TAFCDC
TAF
KCDC 300532Z 3006/3106 11004KT P6SM SKC
     FM301700 22007KT P6SM SKC
     FM302000 23010KT P6SM SKC
     FM310300 15007KT P6SM SKC=



000
FTUS45 KSLC 300305 AAA
TAFSLC
TAF AMD
KSLC 300305Z 3003/3106 15006KT P6SM SCT250
     FM301900 32006KT P6SM SCT150 BKN250=



000
FTUS45 KSLC 292321
TAFCDC
TAF
KCDC 292321Z 3000/3024 VRB05KT P6SM SKC=



000
FTUS45 KSLC 292321
TAFSLC
TAF
KSLC 292321Z 3000/3106 32006KT P6SM SCT250
     FM300300 15006KT P6SM SCT250
     FM301900 32006KT P6SM SCT150 BKN250=



000
FTUS45 KSLC 292321
TAFENV
TAF
KENV 292321Z 3000/3024 VRB05KT P6SM SCT250
     FM301600 11007KT P6SM SCT150 BKN250
      AMD LTD TO CLD VIS AND WIND=



000
FTUS45 KSLC 292321
TAFPVU
TAF
KPVU 292321Z 3000/3024 VRB04KT P6SM SCT250
      AMD LTD TO CLD VIS AND WIND=



000
FTUS45 KSLC 292321
TAFSGU
TAF
KSGU 292321Z 3000/3024 VRB05KT P6SM SKC
      AMD LTD TO CLD VIS AND WIND=



000
FTUS45 KSLC 292321
TAFBCE
TAF
KBCE 292321Z 3000/3024 14007KT P6SM SKC
     FM300200 27005KT P6SM SKC
     FM301600 14008KT P6SM SKC=



000
FTUS45 KSLC 292321
TAFOGD
TAF
KOGD 292321Z 3000/3024 31004KT P6SM SCT150 SCT250
     FM300300 17006KT P6SM SCT250
     FM301900 28006KT P6SM BKN250=



000
FTUS45 KSLC 292321
TAFLGU
TAF
KLGU 292321Z 3000/3024 VRB04KT P6SM SCT150 BKN250=



000
FTUS45 KSLC 292104 AAA
TAFSLC
TAF AMD
KSLC 292104Z 2921/3024 32006KT P6SM FEW080 SCT120
     FM300300 15005KT P6SM FEW200
     FM301900 30006KT P6SM SCT200=



000
FTUS45 KSLC 291730
TAFLGU
TAF
KLGU 291730Z 2918/3018 VRB04KT P6SM SCT080=



000
FTUS45 KSLC 291730
TAFSLC
TAF
KSLC 291730Z 2918/3024 14005KT P6SM SKC
     FM291900 32006KT P6SM FEW080 SCT120
     FM300300 15005KT P6SM FEW200
     FM301900 30006KT P6SM SCT200=



000
FTUS45 KSLC 291730
TAFCDC
TAF
KCDC 291730Z 2918/3018 VRB05KT P6SM SKC=



000
FTUS45 KSLC 291730
TAFPVU
TAF
KPVU 291730Z 2918/3018 VRB04KT P6SM SCT120
      AMD LTD TO CLD VIS AND WIND=



000
FTUS45 KSLC 291730
TAFENV
TAF
KENV 291730Z 2918/3018 12006KT P6SM SKC
     FM292300 VRB03KT P6SM SKC
      AMD LTD TO CLD VIS AND WIND=



000
FTUS45 KSLC 291730
TAFOGD
TAF
KOGD 291730Z 2918/3018 VRB04KT P6SM SCT100
     FM300300 17006KT P6SM SKC=



000
FTUS45 KSLC 291730
TAFBCE
TAF
KBCE 291730Z 2918/3018 15007KT P6SM SKC
     FM300200 25005KT P6SM SKC=



000
FTUS45 KSLC 291730
TAFSGU
TAF
KSGU 291730Z 2918/3018 VRB05KT P6SM SKC
      AMD LTD TO CLD VIS AND WIND=



000
FTUS45 KSLC 291416 AAA
TAFSLC
TAF AMD
KSLC 291416Z 2914/3018 14005KT P6SM SKC
     FM291900 32006KT P6SM FEW100
     FM300300 15005KT P6SM SKC=



000
FTUS45 KSLC 291120
TAFCDC
TAF
KCDC 291120Z 2912/3012 VRB05KT P6SM SKC=



000
FTUS45 KSLC 291120
TAFPVU
TAF
KPVU 291120Z 2912/3012 VRB04KT P6SM SKC
      AMD LTD TO CLD VIS AND WIND=



000
FTUS45 KSLC 291120
TAFENV
TAF
KENV 291120Z 2912/3012 VRB04KT P6SM SKC
      AMD LTD TO CLD VIS AND WIND=



000
FTUS45 KSLC 291120
TAFOGD
TAF
KOGD 291120Z 2912/3012 17008KT P6SM SKC
     FM291900 VRB04KT P6SM SCT100
     FM300300 17006KT P6SM SKC=



000
FTUS45 KSLC 291120
TAFSLC
TAF
KSLC 291120Z 2912/3018 14005KT P6SM SKC
     FM291900 32006KT P6SM FEW100
     FM300300 15005KT P6SM SKC=



000
FTUS45 KSLC 291120
TAFSGU
TAF
KSGU 291120Z 2912/3012 VRB05KT P6SM SKC
      AMD LTD TO CLD VIS AND WIND=



000
FTUS45 KSLC 291120
TAFLGU
TAF
KLGU 291120Z 2912/3012 VRB04KT P6SM SCT080=



000
FTUS45 KSLC 291120
TAFBCE
TAF
KBCE 291120Z 2912/3012 27006KT P6SM SKC
     FM291800 15008KT P6SM SKC
     FM300200 25005KT P6SM SKC=



000
FTUS45 KSLC 290902 AAA
TAFSLC
TAF AMD
KSLC 290902Z 2909/3012 14005KT P6SM SKC
     FM291900 32006KT P6SM FEW100
     FM300300 15005KT P6SM SKC=



000
FTUS45 KSLC 290521
TAFSGU
TAF
KSGU 290521Z 2906/3006 VRB05KT P6SM SKC
      AMD LTD TO CLD VIS AND WIND=



000
FTUS45 KSLC 290521
TAFOGD
TAF
KOGD 290521Z 2906/3006 17005KT P6SM SKC
     FM291900 VRB04KT P6SM SKC=



000
FTUS45 KSLC 290521
TAFBCE
TAF
KBCE 290521Z 2906/3006 27005KT P6SM SKC
     FM291800 15008KT P6SM SKC
     FM300200 25005KT P6SM SKC=



000
FTUS45 KSLC 290521
TAFPVU
TAF
KPVU 290521Z 2906/3006 VRB04KT P6SM SKC
      AMD LTD TO CLD VIS AND WIND=



000
FTUS45 KSLC 290521
TAFSLC
TAF
KSLC 290521Z 2906/3012 16005KT P6SM SKC
     FM291900 32006KT P6SM FEW100
     FM300300 15005KT P6SM SKC=



000
FTUS45 KSLC 290521
TAFLGU
TAF
KLGU 290521Z 2906/3006 VRB04KT P6SM SKC
     FM291900 VRB04KT P6SM BKN080
     FM300100 VRB03KT P6SM SKC=



000
FTUS45 KSLC 290521
TAFCDC
TAF
KCDC 290521Z 2906/3006 VRB05KT P6SM SKC=



000
FTUS45 KSLC 290521
TAFENV
TAF
KENV 290521Z 2906/3006 VRB04KT P6SM SKC
      AMD LTD TO CLD VIS AND WIND=



000
FTUS45 KSLC 290306 AAA
TAFSLC
TAF AMD
KSLC 290306Z 2903/3006 16005KT P6SM SKC
     FM291900 32006KT P6SM SCT200=



000
FTUS45 KSLC 282320
TAFSGU
TAF
KSGU 282320Z 2900/2924 VRB05KT P6SM SKC
      AMD LTD TO CLD VIS AND WIND=



000
FTUS45 KSLC 282320
TAFSLC
TAF
KSLC 282320Z 2900/3006 32006KT P6SM SKC
     FM290300 16005KT P6SM SKC
     FM291900 32006KT P6SM SCT200=



000
FTUS45 KSLC 282320
TAFOGD
TAF
KOGD 282320Z 2900/2924 29005KT P6SM SKC
     FM290200 17005KT P6SM SKC
     FM291900 25005KT P6SM SKC=



000
FTUS45 KSLC 282320
TAFPVU
TAF
KPVU 282320Z 2900/2924 VRB04KT P6SM SKC
      AMD LTD TO CLD VIS AND WIND=



000
FTUS45 KSLC 282320
TAFBCE
TAF
KBCE 282320Z 2900/2924 15007KT P6SM SKC
     FM290300 27005KT P6SM SKC=



000
FTUS45 KSLC 282320
TAFCDC
TAF
KCDC 282320Z 2900/2924 VRB05KT P6SM SKC=



000
FTUS45 KSLC 282320
TAFENV
TAF
KENV 282320Z 2900/2924 VRB04KT P6SM SKC
      AMD LTD TO CLD VIS AND WIND=



000
FTUS45 KSLC 282320
TAFLGU
TAF
KLGU 282320Z 2900/2924 VRB04KT P6SM SKC=



000
FTUS45 KSLC 282033 AAA
TAFSLC
TAF AMD
KSLC 282033Z 2821/2924 32006KT P6SM SKC
     FM290300 16005KT P6SM SKC
     FM291900 32006KT P6SM SCT200=



    US Dept of Commerce
    National Oceanic and Atmospheric Administration
    National Weather Service
    1325 East West Highway
    Silver Spring, MD 20910
    Page Author: NWS Internet Services Team
Disclaimer
Information Quality
Credits
Glossary
Privacy Policy
Freedom of Information Act (FOIA)
About Us
Career Opportunities